createdAt,value
2022-10-07T00:01:30.531Z,97989.31
2022-10-07T00:03:58.892Z,97994.34
2022-10-07T00:06:27.701Z,97991.22
2022-10-07T00:08:56.050Z,97992.72
2022-10-07T00:11:27.903Z,97987.78
2022-10-07T00:13:59.509Z,97990.88
2022-10-07T00:16:33.134Z,97994.19
2022-10-07T00:19:04.223Z,97986.97
2022-10-07T00:21:35.612Z,97992.09
2022-10-07T00:24:04.796Z,97985.03
2022-10-07T00:26:36.237Z,97996.63
2022-10-07T00:29:05.547Z,97992.22
2022-10-07T00:31:37.763Z,98000.19
2022-10-07T00:34:06.698Z,97995.53
2022-10-07T00:36:37.451Z,97993.59
2022-10-07T00:39:11.232Z,97992.03
2022-10-07T00:41:43.660Z,97985.56
2022-10-07T00:44:44.100Z,97983.69
2022-10-07T00:47:20.449Z,97983.97
2022-10-07T00:49:56.381Z,97978.97
2022-10-07T00:52:30.951Z,97984.03
2022-10-07T00:55:07.265Z,97977.69
2022-10-07T00:57:36.252Z,97981.97
2022-10-07T01:00:07.639Z,97971.53
2022-10-07T01:02:42.119Z,97964.25
2022-10-07T01:05:14.309Z,97960.81
2022-10-07T01:07:44.761Z,97963.16
2022-10-07T01:10:15.563Z,97968.69
2022-10-07T01:12:58.013Z,97953.72
2022-10-07T01:15:37.010Z,97959.81
2022-10-07T01:18:16.981Z,97958.63
2022-10-07T01:20:54.772Z,97956.53
2022-10-07T01:23:51.501Z,97955.63
2022-10-07T01:26:49.457Z,97949.59
2022-10-07T01:29:24.622Z,97944.78
2022-10-07T01:32:00.631Z,97935.16
2022-10-07T01:34:29.727Z,97928.72
2022-10-07T01:37:01.893Z,97936.72
2022-10-07T01:39:37.567Z,97933.25
2022-10-07T01:42:08.246Z,97934.47
2022-10-07T01:44:38.143Z,97926.91
2022-10-07T01:47:07.518Z,97929.97
2022-10-07T01:49:37.489Z,97924.63
2022-10-07T01:52:29.726Z,97930.91
2022-10-07T01:55:29.164Z,97911.47
2022-10-07T01:58:14.325Z,97914.91
2022-10-07T02:00:48.642Z,97919.38
2022-10-07T02:03:37.521Z,97917.88
2022-10-07T02:06:14.349Z,97917.09
2022-10-07T02:08:48.872Z,97904.13
2022-10-07T02:11:22.650Z,97910.28
2022-10-07T02:14:01.408Z,97905.44
2022-10-07T02:16:35.575Z,97897.47
2022-10-07T02:19:11.032Z,97912.97
2022-10-07T02:21:41.843Z,97906.56
2022-10-07T02:24:13.549Z,97902.25
2022-10-07T02:26:43.781Z,97907.28
2022-10-07T02:29:15.849Z,97893.59
2022-10-07T02:31:46.328Z,97884.63
2022-10-07T02:34:20.286Z,97886.63
2022-10-07T02:36:54.916Z,97895.78
2022-10-07T02:39:23.366Z,97888.44
2022-10-07T02:41:58.746Z,97884.41
2022-10-07T02:44:32.437Z,97883.66
2022-10-07T02:47:08.201Z,97885.50
2022-10-07T02:49:41.438Z,97885.88
2022-10-07T02:52:14.847Z,97879.94
2022-10-07T02:54:48.890Z,97881.50
2022-10-07T02:57:20.177Z,97881.72
2022-10-07T02:59:51.685Z,97875.50
2022-10-07T03:02:27.791Z,97883.47
2022-10-07T03:04:58.758Z,97875.53
2022-10-07T03:07:28.386Z,97872.94
2022-10-07T03:09:56.916Z,97873.75
2022-10-07T03:12:25.217Z,97884.88
2022-10-07T03:14:55.150Z,97877.03
2022-10-07T03:17:23.565Z,97878.25
2022-10-07T03:19:51.886Z,97864.50
2022-10-07T03:22:21.031Z,97879.66
2022-10-07T03:24:50.445Z,97868.28
2022-10-07T03:27:19.454Z,97861.81
2022-10-07T03:29:48.864Z,97871.91
2022-10-07T03:32:18.770Z,97864.34
2022-10-07T03:34:47.040Z,97865.81
2022-10-07T03:37:15.594Z,97865.63
2022-10-07T03:39:44.081Z,97867.69
2022-10-07T03:42:12.380Z,97870.53
2022-10-07T03:44:41.226Z,97868.03
2022-10-07T03:47:11.144Z,97853.72
2022-10-07T03:49:41.686Z,97856.69
2022-10-07T03:52:10.005Z,97854.97
2022-10-07T03:54:38.307Z,97852.78
2022-10-07T03:57:27.420Z,97861.75
2022-10-07T03:59:55.939Z,97857.97
2022-10-07T04:02:24.352Z,97867.69
2022-10-07T04:04:54.658Z,97860.63
2022-10-07T04:07:23.604Z,97853.25
2022-10-07T04:09:52.242Z,97851.81
2022-10-07T04:12:20.712Z,97857.84
2022-10-07T04:14:49.084Z,97850.41
2022-10-07T04:17:19.711Z,97850.25
2022-10-07T04:19:48.349Z,97850.53
2022-10-07T04:22:18.137Z,97846.31
2022-10-07T04:25:07.063Z,97839.56
2022-10-07T04:27:51.095Z,97841.28
2022-10-07T04:30:21.154Z,97845.81
2022-10-07T04:32:50.642Z,97842.09
2022-10-07T04:35:20.214Z,97845.88
2022-10-07T04:37:51.608Z,97835.78
2022-10-07T04:40:21.217Z,97842.72
2022-10-07T04:43:19.667Z,97841.78
2022-10-07T04:45:49.778Z,97841.63
2022-10-07T04:48:19.811Z,97831.72
2022-10-07T04:50:49.439Z,97837.22
2022-10-07T04:53:20.410Z,97832.50
2022-10-07T04:55:51.802Z,97834.66
2022-10-07T04:58:21.676Z,97836.25
2022-10-07T05:00:57.620Z,97830.78
2022-10-07T05:03:29.894Z,97830.94
2022-10-07T05:06:05.591Z,97829.31
2022-10-07T05:08:36.745Z,97820.25
2022-10-07T05:11:05.481Z,97825.25
2022-10-07T05:13:34.320Z,97826.03
2022-10-07T05:16:04.559Z,97824.28
2022-10-07T05:18:35.641Z,97823.22
2022-10-07T05:21:06.731Z,97817.38
2022-10-07T05:23:37.129Z,97830.91
2022-10-07T05:26:09.330Z,97828.38
2022-10-07T05:28:40.315Z,97823.53
2022-10-07T05:31:11.626Z,97824.63
2022-10-07T05:33:40.877Z,97838.63
2022-10-07T05:36:11.491Z,97833.75
2022-10-07T05:38:41.534Z,97830.31
2022-10-07T05:41:12.653Z,97831.06
2022-10-07T05:43:43.660Z,97835.97
2022-10-07T05:46:16.068Z,97835.16
2022-10-07T05:48:49.244Z,97829.97
2022-10-07T05:51:18.840Z,97827.44
2022-10-07T05:53:48.662Z,97821.47
2022-10-07T05:56:20.129Z,97818.47
2022-10-07T05:58:49.347Z,97812.38
2022-10-07T06:01:19.758Z,97819.44
2022-10-07T06:03:52.798Z,97818.19
2022-10-07T06:06:21.858Z,97813.59
2022-10-07T06:08:52.653Z,97817.09
2022-10-07T06:11:53.503Z,97815.31
2022-10-07T06:14:22.014Z,97822.81
2022-10-07T06:16:50.334Z,97820.47
2022-10-07T06:19:22.994Z,97826.19
2022-10-07T06:21:52.028Z,97819.91
2022-10-07T06:24:21.692Z,97822.75
2022-10-07T06:26:50.325Z,97821.97
2022-10-07T06:29:18.695Z,97831.69
2022-10-07T06:31:47.004Z,97834.81
2022-10-07T06:34:15.284Z,97831.38
2022-10-07T06:36:43.538Z,97824.03
2022-10-07T06:39:12.445Z,97829.81
2022-10-07T06:41:42.145Z,97829.59
2022-10-07T06:44:10.590Z,97822.38
2022-10-07T06:46:38.876Z,97831.66
2022-10-07T06:49:07.598Z,97826.97
2022-10-07T06:51:35.870Z,97833.13
2022-10-07T06:54:04.307Z,97830.28
2022-10-07T06:56:32.809Z,97838.94
2022-10-07T06:59:03.795Z,97824.13
2022-10-07T07:01:32.422Z,97828.75
2022-10-07T07:04:00.855Z,97824.00
2022-10-07T07:06:29.275Z,97816.88
2022-10-07T07:08:58.471Z,97826.34
2022-10-07T07:11:41.112Z,97827.91
2022-10-07T07:14:13.658Z,97831.31
2022-10-07T07:16:42.248Z,97832.75
2022-10-07T07:19:14.592Z,97834.72
2022-10-07T07:21:46.568Z,97833.81
2022-10-07T07:24:17.915Z,97838.00
2022-10-07T07:26:47.888Z,97829.34
2022-10-07T07:29:18.769Z,97836.97
2022-10-07T07:31:50.107Z,97837.06
2022-10-07T07:34:19.238Z,97839.94
2022-10-07T07:36:51.167Z,97827.88
2022-10-07T07:39:21.006Z,97833.09
2022-10-07T07:41:51.194Z,97828.78
2022-10-07T07:44:21.363Z,97843.59
2022-10-07T07:46:52.141Z,97831.59
2022-10-07T07:49:21.958Z,97831.38
2022-10-07T07:51:52.022Z,97835.63
2022-10-07T07:54:21.095Z,97829.91
2022-10-07T07:56:50.608Z,97832.66
2022-10-07T07:59:22.662Z,97835.31
2022-10-07T08:01:51.130Z,97825.88
2022-10-07T08:04:19.452Z,97828.13
2022-10-07T08:06:48.175Z,97833.47
2022-10-07T08:09:16.631Z,97823.03
2022-10-07T08:11:45.642Z,97823.66
2022-10-07T08:14:14.204Z,97823.88
2022-10-07T08:16:44.988Z,97824.97
2022-10-07T08:19:13.763Z,97813.56
2022-10-07T08:21:42.581Z,97818.72
2022-10-07T08:24:14.508Z,97816.25
2022-10-07T08:26:42.841Z,97828.81
2022-10-07T08:29:11.187Z,97823.41
2022-10-07T08:31:39.700Z,97818.91
2022-10-07T08:34:10.247Z,97823.66
2022-10-07T08:36:39.224Z,97819.78
2022-10-07T08:39:08.486Z,97814.34
2022-10-07T08:41:57.790Z,97814.25
2022-10-07T08:44:32.068Z,97813.81
2022-10-07T08:47:10.972Z,97814.72
2022-10-07T08:49:58.327Z,97808.13
2022-10-07T08:52:33.890Z,97805.19
2022-10-07T08:55:02.874Z,97808.78
2022-10-07T08:57:51.297Z,97796.66
2022-10-07T09:00:24.925Z,97804.81
2022-10-07T09:03:13.586Z,97796.63
2022-10-07T09:05:47.356Z,97799.88
2022-10-07T09:08:22.227Z,97793.06
2022-10-07T09:10:53.606Z,97793.94
2022-10-07T09:13:25.841Z,97791.84
2022-10-07T09:16:00.468Z,97789.25
2022-10-07T09:18:35.051Z,97793.28
2022-10-07T09:21:09.575Z,97793.75
2022-10-07T09:23:38.117Z,97798.38
2022-10-07T09:26:11.417Z,97779.41
2022-10-07T09:28:40.142Z,97786.06
2022-10-07T09:31:09.215Z,97791.25
2022-10-07T09:33:44.350Z,97784.00
2022-10-07T09:36:18.235Z,97782.00
2022-10-07T09:38:49.201Z,97778.75
2022-10-07T09:41:21.724Z,97772.88
2022-10-07T09:44:05.776Z,97769.31
2022-10-07T09:46:47.262Z,97765.25
2022-10-07T09:49:34.147Z,97758.41
2022-10-07T09:52:07.387Z,97761.16
2022-10-07T09:54:37.634Z,97761.91
2022-10-07T09:57:07.366Z,97756.56
2022-10-07T09:59:37.403Z,97758.38
2022-10-07T10:02:21.952Z,97756.56
2022-10-07T10:04:53.605Z,97757.44
2022-10-07T10:07:28.390Z,97755.31
2022-10-07T10:09:59.256Z,97746.56
2022-10-07T10:12:27.864Z,97749.25
2022-10-07T10:14:59.971Z,97751.75
2022-10-07T10:17:39.032Z,97748.00
2022-10-07T10:20:33.471Z,97741.09
2022-10-07T10:23:28.436Z,97736.91
2022-10-07T10:26:33.559Z,97719.25
2022-10-07T10:29:32.498Z,97721.28
2022-10-07T10:32:23.811Z,97719.06
2022-10-07T10:34:59.941Z,97712.88
2022-10-07T10:37:52.500Z,97715.41
2022-10-07T10:40:33.633Z,97714.38
2022-10-07T10:43:23.699Z,97719.50
2022-10-07T10:46:14.248Z,97706.06
2022-10-07T10:48:46.923Z,97699.41
2022-10-07T10:51:34.271Z,97705.44
2022-10-07T10:54:19.556Z,97700.94
2022-10-07T10:56:58.316Z,97697.41
2022-10-07T11:00:06.925Z,97699.91
2022-10-07T11:03:00.907Z,97691.28
2022-10-07T11:05:33.391Z,97691.69
2022-10-07T11:08:10.320Z,97681.31
2022-10-07T11:10:46.825Z,97686.63
2022-10-07T11:13:31.001Z,97685.59
2022-10-07T11:16:07.957Z,97678.94
2022-10-07T11:18:45.652Z,97676.59
2022-10-07T11:21:20.245Z,97673.09
2022-10-07T11:23:59.355Z,97666.25
2022-10-07T11:26:35.030Z,97663.28
2022-10-07T11:29:18.415Z,97654.56
2022-10-07T11:31:57.283Z,97656.84
2022-10-07T11:34:38.446Z,97653.19
2022-10-07T11:37:17.361Z,97655.84
2022-10-07T11:39:45.707Z,97650.78
2022-10-07T11:42:19.599Z,97655.47
2022-10-07T11:45:02.763Z,97656.63
2022-10-07T11:47:36.876Z,97650.44
2022-10-07T11:50:11.685Z,97643.78
2022-10-07T11:52:44.842Z,97641.56
2022-10-07T11:55:22.979Z,97631.94
2022-10-07T11:57:55.987Z,97631.19
2022-10-07T12:00:30.669Z,97627.72
2022-10-07T12:03:13.038Z,97620.50
2022-10-07T12:06:10.311Z,97620.66
2022-10-07T12:08:43.758Z,97615.28
2022-10-07T12:11:48.252Z,97603.50
2022-10-07T12:14:38.556Z,97588.66
2022-10-07T12:17:32.151Z,97594.69
2022-10-07T12:20:46.460Z,97590.94
2022-10-07T12:23:42.771Z,97582.91
2022-10-07T12:26:53.946Z,97583.16
2022-10-07T12:29:50.224Z,97573.59
2022-10-07T12:33:01.081Z,97574.59
2022-10-07T12:35:53.931Z,97566.25
2022-10-07T12:38:30.076Z,97565.47
2022-10-07T12:41:14.422Z,97562.81
2022-10-07T12:43:53.718Z,97563.41
2022-10-07T12:46:24.810Z,97561.00
2022-10-07T12:49:01.437Z,97558.78
2022-10-07T12:51:38.479Z,97560.03
2022-10-07T12:54:18.266Z,97556.16
2022-10-07T12:56:49.719Z,97548.91
2022-10-07T12:59:55.866Z,97547.50
2022-10-07T13:03:22.825Z,97546.63
2022-10-07T13:06:43.347Z,97533.28
2022-10-07T13:10:14.171Z,97531.59
2022-10-07T13:12:51.923Z,97531.34
2022-10-07T13:15:31.471Z,97533.28
2022-10-07T13:18:10.816Z,97535.72
2022-10-07T13:20:54.302Z,97539.44
2022-10-07T13:23:27.791Z,97525.00
2022-10-07T13:25:59.466Z,97531.16
2022-10-07T13:28:39.411Z,97516.91
2022-10-07T13:31:20.922Z,97522.38
2022-10-07T13:33:51.518Z,97518.22
2022-10-07T13:36:23.396Z,97508.16
2022-10-07T13:38:55.892Z,97520.63
2022-10-07T13:41:28.373Z,97503.16
2022-10-07T13:44:01.074Z,97509.28
2022-10-07T13:46:33.181Z,97506.44
2022-10-07T13:49:03.099Z,97499.41
2022-10-07T13:51:36.244Z,97498.44
2022-10-07T13:54:09.113Z,97492.91
2022-10-07T13:56:41.739Z,97485.00
2022-10-07T13:59:18.444Z,97492.53
2022-10-07T14:01:50.567Z,97495.34
2022-10-07T14:04:25.129Z,97494.28
2022-10-07T14:07:01.117Z,97489.63
2022-10-07T14:09:47.856Z,97479.13
2022-10-07T14:12:22.085Z,97483.69
2022-10-07T14:14:53.653Z,97476.84
2022-10-07T14:17:34.415Z,97463.25
2022-10-07T14:20:06.578Z,97460.63
2022-10-07T14:22:39.254Z,97457.47
2022-10-07T14:25:20.514Z,97455.47
2022-10-07T14:28:15.160Z,97453.41
2022-10-07T14:31:03.087Z,97446.41
2022-10-07T14:34:00.244Z,97440.09
2022-10-07T14:36:29.022Z,97442.72
2022-10-07T14:39:05.772Z,97432.72
2022-10-07T14:41:36.856Z,97429.22
2022-10-07T14:44:05.447Z,97428.16
2022-10-07T14:46:39.150Z,97426.84
2022-10-07T14:49:10.123Z,97419.16
2022-10-07T14:51:46.304Z,97412.47
2022-10-07T14:54:14.868Z,97412.22
2022-10-07T14:56:44.667Z,97414.09
2022-10-07T14:59:15.917Z,97421.09
2022-10-07T15:01:44.447Z,97411.84
2022-10-07T15:04:13.180Z,97407.66
2022-10-07T15:06:41.836Z,97411.38
2022-10-07T15:09:14.010Z,97406.09
2022-10-07T15:11:45.298Z,97404.81
2022-10-07T15:14:14.903Z,97403.47
2022-10-07T15:16:44.632Z,97391.59
2022-10-07T15:19:14.404Z,97394.19
2022-10-07T15:21:44.031Z,97395.53
2022-10-07T15:24:12.903Z,97387.88
2022-10-07T15:26:48.032Z,97399.88
2022-10-07T15:29:17.933Z,97391.03
2022-10-07T15:31:48.582Z,97389.56
2022-10-07T15:34:18.043Z,97387.19
2022-10-07T15:36:48.658Z,97385.97
2022-10-07T15:39:17.077Z,97397.56
2022-10-07T15:41:47.353Z,97387.91
2022-10-07T15:44:22.203Z,97380.97
2022-10-07T15:46:54.706Z,97378.44
2022-10-07T15:49:23.312Z,97376.22
2022-10-07T15:51:51.950Z,97367.78
2022-10-07T15:54:20.847Z,97361.94
2022-10-07T15:56:51.024Z,97363.72
2022-10-07T15:59:20.509Z,97366.41
2022-10-07T16:01:51.468Z,97360.38
2022-10-07T16:04:20.372Z,97358.16
2022-10-07T16:06:51.555Z,97355.25
2022-10-07T16:09:20.864Z,97361.38
2022-10-07T16:11:51.195Z,97358.59
2022-10-07T16:14:19.497Z,97358.56
2022-10-07T16:16:47.840Z,97368.00
2022-10-07T16:19:16.133Z,97362.16
2022-10-07T16:21:45.175Z,97360.97
2022-10-07T16:24:17.139Z,97361.13
2022-10-07T16:26:48.252Z,97368.81
2022-10-07T16:29:38.056Z,97362.56
2022-10-07T16:32:10.795Z,97362.59
2022-10-07T16:34:44.317Z,97367.19
2022-10-07T16:37:14.317Z,97368.75
2022-10-07T16:39:43.110Z,97369.72
2022-10-07T16:42:11.473Z,97365.78
2022-10-07T16:44:41.298Z,97368.81
2022-10-07T16:47:09.666Z,97366.47
2022-10-07T16:49:38.011Z,97373.06
2022-10-07T16:52:06.490Z,97372.31
2022-10-07T16:54:35.469Z,97374.16
2022-10-07T16:57:04.193Z,97370.66
2022-10-07T16:59:32.558Z,97369.91
2022-10-07T17:02:04.971Z,97366.19
2022-10-07T17:04:33.382Z,97368.00
2022-10-07T17:07:02.048Z,97371.03
2022-10-07T17:09:30.399Z,97366.91
2022-10-07T17:11:59.496Z,97367.72
2022-10-07T17:14:31.500Z,97362.00
2022-10-07T17:17:01.614Z,97374.47
2022-10-07T17:19:30.985Z,97369.88
2022-10-07T17:22:00.927Z,97364.03
2022-10-07T17:24:30.029Z,97371.09
2022-10-07T17:26:58.390Z,97369.47
2022-10-07T17:29:27.023Z,97376.41
2022-10-07T17:31:56.473Z,97377.19
2022-10-07T17:34:26.326Z,97379.66
2022-10-07T17:36:58.889Z,97380.81
2022-10-07T17:39:31.120Z,97384.69
2022-10-07T17:41:59.463Z,97393.50
2022-10-07T17:44:27.912Z,97378.81
2022-10-07T17:46:59.143Z,97389.09
2022-10-07T17:49:29.040Z,97382.97
2022-10-07T17:51:58.390Z,97382.66
2022-10-07T17:54:28.871Z,97380.88
2022-10-07T17:56:59.470Z,97382.13
2022-10-07T17:59:28.106Z,97384.41
2022-10-07T18:01:56.425Z,97374.69
2022-10-07T18:04:26.146Z,97375.03
2022-10-07T18:06:56.039Z,97379.09
2022-10-07T18:09:24.474Z,97368.84
2022-10-07T18:12:10.204Z,97376.75
2022-10-07T18:14:56.971Z,97364.69
2022-10-07T18:17:25.485Z,97371.75
2022-10-07T18:19:55.182Z,97380.38
2022-10-07T18:22:26.082Z,97376.63
2022-10-07T18:24:57.163Z,97375.50
2022-10-07T18:27:27.569Z,97372.69
2022-10-07T18:29:56.853Z,97372.53
2022-10-07T18:32:26.277Z,97369.53
2022-10-07T18:34:56.542Z,97373.41
2022-10-07T18:37:26.549Z,97378.81
2022-10-07T18:39:55.074Z,97378.19
2022-10-07T18:42:23.921Z,97365.16
2022-10-07T18:44:52.373Z,97367.97
2022-10-07T18:47:21.177Z,97366.56
2022-10-07T18:49:51.713Z,97362.47
2022-10-07T18:52:20.458Z,97359.84
2022-10-07T18:54:50.487Z,97367.84
2022-10-07T18:57:19.756Z,97366.44
2022-10-07T18:59:48.283Z,97363.91
2022-10-07T19:02:16.891Z,97361.88
2022-10-07T19:04:46.060Z,97363.28
2022-10-07T19:07:14.609Z,97371.25
2022-10-07T19:09:43.085Z,97369.84
2022-10-07T19:12:27.978Z,97354.19
2022-10-07T19:14:56.406Z,97360.00
2022-10-07T19:17:24.988Z,97357.31
2022-10-07T19:19:54.118Z,97360.94
2022-10-07T19:22:22.658Z,97360.13
2022-10-07T19:25:10.659Z,97366.56
2022-10-07T19:27:40.495Z,97363.13
2022-10-07T19:30:11.742Z,97363.91
2022-10-07T19:32:40.354Z,97367.66
2022-10-07T19:35:10.003Z,97373.31
2022-10-07T19:37:39.823Z,97371.59
2022-10-07T19:40:09.549Z,97369.22
2022-10-07T19:42:39.743Z,97366.28
2022-10-07T19:45:10.478Z,97365.03
2022-10-07T19:47:39.461Z,97365.94
2022-10-07T19:50:09.308Z,97364.81
2022-10-07T19:52:37.750Z,97359.97
2022-10-07T19:55:08.713Z,97356.44
2022-10-07T19:57:37.493Z,97355.41
2022-10-07T20:00:09.406Z,97357.78
2022-10-07T20:02:38.917Z,97358.88
2022-10-07T20:05:09.934Z,97353.53
2022-10-07T20:07:38.412Z,97345.91
2022-10-07T20:10:09.095Z,97361.38
2022-10-07T20:12:39.875Z,97352.31
2022-10-07T20:15:13.897Z,97354.72
2022-10-07T20:17:45.197Z,97359.38
2022-10-07T20:20:14.796Z,97350.31
2022-10-07T20:22:48.602Z,97349.41
2022-10-07T20:25:18.466Z,97351.69
2022-10-07T20:27:49.114Z,97357.63
2022-10-07T20:30:19.288Z,97355.41
2022-10-07T20:32:49.977Z,97352.66
2022-10-07T20:35:18.895Z,97357.47
2022-10-07T20:37:48.379Z,97350.16
2022-10-07T20:40:34.254Z,97351.16
2022-10-07T20:43:04.030Z,97349.69
2022-10-07T20:45:55.954Z,97367.31
2022-10-07T20:48:25.175Z,97353.59
2022-10-07T20:50:53.886Z,97361.88
2022-10-07T20:53:22.534Z,97367.38
2022-10-07T20:55:50.785Z,97367.03
2022-10-07T20:58:21.250Z,97370.94
2022-10-07T21:00:51.163Z,97368.00
2022-10-07T21:03:19.648Z,97369.09
2022-10-07T21:05:59.533Z,97369.13
2022-10-07T21:08:28.071Z,97368.19
2022-10-07T21:11:02.951Z,97368.88
2022-10-07T21:13:32.031Z,97373.44
2022-10-07T21:16:04.038Z,97364.75
2022-10-07T21:18:32.884Z,97367.56
2022-10-07T21:21:01.659Z,97365.50
2022-10-07T21:23:31.374Z,97362.66
2022-10-07T21:26:02.524Z,97368.19
2022-10-07T21:28:33.904Z,97362.25
2022-10-07T21:31:08.335Z,97362.44
2022-10-07T21:33:39.877Z,97360.16
2022-10-07T21:36:12.303Z,97359.84
2022-10-07T21:38:41.797Z,97358.78
2022-10-07T21:41:15.199Z,97356.88
2022-10-07T21:43:44.129Z,97350.53
2022-10-07T21:46:13.957Z,97340.06
2022-10-07T21:48:43.506Z,97349.16
2022-10-07T21:51:12.556Z,97344.94
2022-10-07T21:53:41.686Z,97336.88
2022-10-07T21:56:14.518Z,97342.19
2022-10-07T21:58:43.185Z,97342.63
2022-10-07T22:01:16.796Z,97345.50
2022-10-07T22:03:46.451Z,97350.47
2022-10-07T22:06:17.869Z,97346.31
2022-10-07T22:08:47.424Z,97342.44
2022-10-07T22:11:18.447Z,97342.16
2022-10-07T22:13:51.571Z,97346.31
2022-10-07T22:16:25.367Z,97346.25
2022-10-07T22:18:56.464Z,97345.66
2022-10-07T22:21:27.253Z,97341.69
2022-10-07T22:23:59.464Z,97339.63
2022-10-07T22:26:31.222Z,97331.97
2022-10-07T22:28:59.860Z,97331.97
2022-10-07T22:31:32.487Z,97332.91
2022-10-07T22:34:02.095Z,97330.78
2022-10-07T22:36:30.351Z,97321.66
2022-10-07T22:38:59.759Z,97325.25
2022-10-07T22:41:29.206Z,97337.66
2022-10-07T22:43:59.214Z,97329.31
2022-10-07T22:46:29.914Z,97330.59
2022-10-07T22:49:00.107Z,97327.09
2022-10-07T22:51:29.194Z,97318.47
2022-10-07T22:53:59.147Z,97323.06
2022-10-07T22:56:29.300Z,97333.25
2022-10-07T22:59:00.325Z,97331.59
2022-10-07T23:01:32.166Z,97321.81
2022-10-07T23:04:06.088Z,97331.78
2022-10-07T23:06:36.754Z,97329.44
2022-10-07T23:09:06.143Z,97335.31
2022-10-07T23:11:34.801Z,97338.88
2022-10-07T23:14:03.346Z,97320.66
2022-10-07T23:16:34.221Z,97333.16
2022-10-07T23:19:02.811Z,97321.16
2022-10-07T23:21:35.343Z,97321.72
2022-10-07T23:24:07.773Z,97324.47
2022-10-07T23:26:38.769Z,97313.28
2022-10-07T23:29:08.723Z,97314.06
2022-10-07T23:31:38.589Z,97317.28
2022-10-07T23:34:07.759Z,97313.63
2022-10-07T23:36:36.843Z,97303.00
2022-10-07T23:39:05.453Z,97312.66
2022-10-07T23:41:34.788Z,97313.16
2022-10-07T23:44:04.348Z,97314.00
2022-10-07T23:46:36.991Z,97312.50
2022-10-07T23:49:05.786Z,97301.28
2022-10-07T23:51:35.025Z,97313.28
2022-10-07T23:54:05.807Z,97315.78
2022-10-07T23:56:35.298Z,97315.00
2022-10-07T23:59:04.020Z,97311.41
